createdAt,value
2018-06-24T00:01:21.597Z,13.16
2018-06-24T00:03:51.417Z,13.17
2018-06-24T00:06:21.253Z,13.28
2018-06-24T00:08:51.097Z,13.21
2018-06-24T00:11:20.937Z,13.19
2018-06-24T00:13:50.791Z,13.18
2018-06-24T00:16:20.551Z,13.15
2018-06-24T00:18:50.472Z,13.17
2018-06-24T00:21:20.280Z,13.09
2018-06-24T00:23:50.231Z,13.12
2018-06-24T00:26:19.987Z,13.22
2018-06-24T00:28:49.770Z,13.19
2018-06-24T00:31:19.584Z,13.17
2018-06-24T00:33:49.405Z,13.15
2018-06-24T00:36:19.257Z,13.14
2018-06-24T00:38:49.348Z,13.09
2018-06-24T00:41:19.151Z,13.02
2018-06-24T00:43:48.961Z,13.12
2018-06-24T00:46:18.764Z,13.06
2018-06-24T00:48:48.529Z,13.10
2018-06-24T00:51:18.311Z,13.11
2018-06-24T00:53:48.182Z,13.07
2018-06-24T00:56:18.056Z,13.11
2018-06-24T00:58:47.935Z,13.06
2018-06-24T01:01:17.772Z,13.14
2018-06-24T01:03:47.608Z,13.16
2018-06-24T01:06:18.132Z,13.12
2018-06-24T01:08:48.033Z,13.08
2018-06-24T01:11:17.925Z,13.15
2018-06-24T01:13:47.693Z,13.10
2018-06-24T01:16:17.578Z,13.18
2018-06-24T01:18:47.412Z,13.13
2018-06-24T01:21:17.118Z,13.16
2018-06-24T01:23:46.912Z,13.25
2018-06-24T01:26:27.793Z,13.18
2018-06-24T01:28:57.650Z,13.15
2018-06-24T01:31:27.378Z,13.15
2018-06-24T01:33:57.408Z,13.15
2018-06-24T01:36:27.304Z,13.17
2018-06-24T01:38:57.002Z,12.17
2018-06-24T01:41:26.727Z,13.15
2018-06-24T01:43:56.754Z,13.14
2018-06-24T01:46:26.564Z,13.15
2018-06-24T01:48:56.687Z,13.17
2018-06-24T01:51:27.280Z,13.15
2018-06-24T01:53:57.352Z,13.15
2018-06-24T01:56:27.256Z,13.19
2018-06-24T01:58:58.727Z,13.16
2018-06-24T02:01:28.850Z,13.08
2018-06-24T02:03:59.366Z,13.18
2018-06-24T02:06:29.608Z,13.06
2018-06-24T02:08:59.436Z,13.15
2018-06-24T02:11:29.344Z,13.13
2018-06-24T02:14:00.345Z,13.12
2018-06-24T02:16:31.268Z,13.11
2018-06-24T02:19:00.709Z,13.17
2018-06-24T02:21:30.684Z,13.08
2018-06-24T02:24:01.112Z,13.20
2018-06-24T02:26:30.864Z,13.17
2018-06-24T02:29:01.161Z,13.11
2018-06-24T02:31:31.210Z,13.03
2018-06-24T02:34:01.003Z,13.09
2018-06-24T02:36:31.780Z,13.08
2018-06-24T02:39:01.595Z,13.12
2018-06-24T02:41:32.636Z,13.08
2018-06-24T02:44:02.421Z,13.08
2018-06-24T02:46:32.298Z,13.03
2018-06-24T02:49:02.100Z,13.10
2018-06-24T02:51:31.976Z,13.12
2018-06-24T02:54:01.976Z,13.22
2018-06-24T02:56:31.816Z,13.13
2018-06-24T02:59:01.609Z,13.18
2018-06-24T03:01:31.492Z,13.17
2018-06-24T03:04:01.308Z,13.18
2018-06-24T03:06:31.201Z,13.16
2018-06-24T03:09:01.045Z,13.20
2018-06-24T03:11:30.811Z,13.16
2018-06-24T03:14:00.570Z,13.22
2018-06-24T03:16:30.860Z,13.21
2018-06-24T03:19:00.780Z,13.18
2018-06-24T03:21:30.979Z,13.18
2018-06-24T03:24:01.056Z,13.17
2018-06-24T03:26:30.859Z,13.13
2018-06-24T03:29:00.649Z,13.12
2018-06-24T03:31:30.513Z,13.23
2018-06-24T03:34:00.315Z,13.23
2018-06-24T03:36:30.109Z,13.21
2018-06-24T03:38:59.873Z,13.35
2018-06-24T03:41:29.671Z,13.44
2018-06-24T03:43:59.422Z,13.32
2018-06-24T03:46:29.477Z,13.33
2018-06-24T03:48:59.205Z,13.28
2018-06-24T03:51:29.078Z,13.35
2018-06-24T03:53:58.868Z,13.32
2018-06-24T03:56:29.171Z,13.35
2018-06-24T03:58:59.354Z,13.31
2018-06-24T04:01:29.795Z,13.34
2018-06-24T04:04:00.246Z,13.27
2018-06-24T04:06:30.354Z,13.31
2018-06-24T04:09:00.259Z,13.29
2018-06-24T04:11:30.091Z,13.29
2018-06-24T04:13:59.840Z,13.31
2018-06-24T04:16:29.791Z,13.26
2018-06-24T04:18:59.713Z,13.29
2018-06-24T04:21:29.701Z,13.37
2018-06-24T04:23:59.562Z,13.35
2018-06-24T04:26:29.934Z,13.37
2018-06-24T04:28:59.742Z,13.47
2018-06-24T04:31:29.622Z,13.54
2018-06-24T04:33:59.403Z,13.54
2018-06-24T04:36:29.145Z,13.62
2018-06-24T04:38:58.995Z,13.66
2018-06-24T04:41:28.795Z,13.58
2018-06-24T04:43:58.659Z,13.48
2018-06-24T04:46:28.615Z,13.58
2018-06-24T04:48:58.553Z,13.59
2018-06-24T04:51:28.410Z,13.55
2018-06-24T04:53:58.729Z,13.54
2018-06-24T04:56:29.572Z,13.48
2018-06-24T04:58:59.325Z,13.59
2018-06-24T05:01:29.075Z,13.57
2018-06-24T05:03:59.047Z,13.56
2018-06-24T05:06:28.943Z,13.65
2018-06-24T05:08:58.735Z,13.78
2018-06-24T05:11:28.637Z,13.94
2018-06-24T05:13:58.375Z,13.94
2018-06-24T05:16:28.150Z,13.92
2018-06-24T05:18:59.426Z,14.11
2018-06-24T05:21:29.170Z,14.20
2018-06-24T05:23:59.150Z,14.27
2018-06-24T05:26:28.945Z,14.42
2018-06-24T05:28:58.807Z,14.38
2018-06-24T05:31:28.547Z,14.36
2018-06-24T05:33:58.366Z,14.34
2018-06-24T05:36:28.155Z,14.38
2018-06-24T05:38:58.011Z,14.23
2018-06-24T05:41:27.909Z,14.29
2018-06-24T05:43:57.894Z,14.24
2018-06-24T05:46:27.748Z,14.26
2018-06-24T05:48:57.730Z,14.16
2018-06-24T05:51:27.585Z,14.14
2018-06-24T05:53:57.430Z,14.28
2018-06-24T05:56:27.237Z,14.41
2018-06-24T05:58:57.298Z,14.46
2018-06-24T06:01:27.111Z,14.65
2018-06-24T06:03:57.140Z,14.51
2018-06-24T06:06:27.008Z,14.41
2018-06-24T06:08:56.816Z,14.31
2018-06-24T06:11:26.618Z,14.36
2018-06-24T06:13:56.470Z,14.81
2018-06-24T06:16:26.243Z,15.21
2018-06-24T06:18:56.165Z,15.30
2018-06-24T06:21:26.263Z,15.30
2018-06-24T06:23:56.089Z,15.05
2018-06-24T06:26:25.918Z,14.94
2018-06-24T06:28:55.894Z,14.84
2018-06-24T06:31:25.610Z,14.65
2018-06-24T06:33:55.930Z,14.52
2018-06-24T06:36:26.768Z,14.43
2018-06-24T06:38:56.628Z,14.34
2018-06-24T06:41:26.417Z,14.45
2018-06-24T06:43:56.442Z,14.53
2018-06-24T06:46:26.250Z,14.48
2018-06-24T06:48:56.101Z,14.63
2018-06-24T06:51:26.004Z,14.72
2018-06-24T06:53:55.821Z,14.81
2018-06-24T06:56:25.703Z,15.13
2018-06-24T06:58:55.599Z,15.21
2018-06-24T07:01:25.325Z,15.33
2018-06-24T07:03:55.163Z,15.32
2018-06-24T07:06:25.096Z,15.85
2018-06-24T07:08:55.066Z,16.02
2018-06-24T07:11:25.046Z,15.67
2018-06-24T07:13:54.874Z,15.45
2018-06-24T07:16:24.750Z,15.64
2018-06-24T07:18:54.650Z,15.85
2018-06-24T07:21:25.402Z,15.62
2018-06-24T07:23:55.189Z,15.44
2018-06-24T07:26:25.232Z,15.17
2018-06-24T07:28:55.034Z,15.16
2018-06-24T07:31:25.026Z,15.60
2018-06-24T07:33:56.046Z,16.05
2018-06-24T07:36:26.987Z,16.30
2018-06-24T07:38:56.988Z,16.54
2018-06-24T07:41:27.234Z,16.79
2018-06-24T07:43:57.431Z,16.70
2018-06-24T07:46:27.625Z,16.69
2018-06-24T07:48:57.589Z,16.66
2018-06-24T07:51:29.188Z,16.97
2018-06-24T07:53:59.087Z,16.86
2018-06-24T07:56:29.017Z,16.77
2018-06-24T07:58:58.825Z,16.96
2018-06-24T08:01:28.833Z,16.69
2018-06-24T08:03:58.669Z,16.33
2018-06-24T08:06:28.541Z,16.17
2018-06-24T08:08:58.433Z,15.85
2018-06-24T08:11:28.366Z,16.36
2018-06-24T08:13:58.074Z,16.05
2018-06-24T08:16:29.955Z,15.90
2018-06-24T08:19:00.687Z,15.60
2018-06-24T08:21:30.515Z,15.45
2018-06-24T08:24:00.488Z,15.37
2018-06-24T08:26:30.488Z,15.45
2018-06-24T08:29:00.337Z,15.34
2018-06-24T08:31:34.509Z,15.96
2018-06-24T08:34:05.112Z,16.73
2018-06-24T08:36:35.033Z,17.42
2018-06-24T08:39:06.707Z,18.19
2018-06-24T08:41:36.615Z,18.42
2018-06-24T08:44:07.009Z,18.70
2018-06-24T08:46:37.576Z,18.38
2018-06-24T08:49:08.203Z,17.70
2018-06-24T08:51:41.758Z,17.65
2018-06-24T08:54:11.745Z,17.79
2018-06-24T08:56:41.538Z,17.25
2018-06-24T08:59:11.417Z,16.53
2018-06-24T09:01:41.277Z,16.28
2018-06-24T09:04:11.607Z,16.38
2018-06-24T09:06:41.490Z,16.43
2018-06-24T09:09:11.929Z,16.32
2018-06-24T09:11:41.817Z,16.35
2018-06-24T09:14:11.661Z,16.63
2018-06-24T09:16:41.505Z,16.84
2018-06-24T09:19:11.457Z,17.07
2018-06-24T09:21:40.978Z,16.45
2018-06-24T09:24:10.745Z,16.60
2018-06-24T09:26:40.605Z,16.76
2018-06-24T09:29:10.414Z,16.33
2018-06-24T09:31:40.217Z,16.48
2018-06-24T09:34:10.632Z,16.17
2018-06-24T09:36:40.464Z,15.96
2018-06-24T09:39:12.344Z,15.96
2018-06-24T09:41:42.213Z,15.97
2018-06-24T09:44:12.502Z,15.88
2018-06-24T09:46:42.508Z,16.02
2018-06-24T09:49:12.981Z,16.22
2018-06-24T09:51:43.127Z,16.63
2018-06-24T09:54:13.009Z,16.79
2018-06-24T09:56:43.661Z,17.41
2018-06-24T09:59:13.454Z,17.56
2018-06-24T10:01:43.301Z,17.78
2018-06-24T10:04:13.197Z,17.23
2018-06-24T10:06:44.019Z,16.49
2018-06-24T10:09:14.089Z,16.43
2018-06-24T10:11:43.873Z,16.74
2018-06-24T10:14:13.358Z,16.53
2018-06-24T10:16:42.783Z,16.30
2018-06-24T10:19:12.694Z,15.93
2018-06-24T10:21:42.647Z,15.80
2018-06-24T10:24:12.378Z,15.62
2018-06-24T10:26:42.198Z,15.86
2018-06-24T10:29:11.980Z,15.95
2018-06-24T10:31:41.797Z,16.23
2018-06-24T10:34:11.626Z,16.48
2018-06-24T10:36:41.735Z,16.36
2018-06-24T10:39:13.985Z,16.58
2018-06-24T10:41:44.997Z,16.72
2018-06-24T10:44:16.459Z,16.49
2018-06-24T10:46:46.610Z,16.54
2018-06-24T10:49:16.917Z,16.82
2018-06-24T10:51:49.427Z,16.95
2018-06-24T10:54:19.338Z,16.72
2018-06-24T10:56:49.701Z,16.42
2018-06-24T10:59:21.729Z,16.90
2018-06-24T11:01:51.662Z,17.25
2018-06-24T11:04:23.480Z,17.57
2018-06-24T11:06:55.088Z,16.75
2018-06-24T11:09:26.220Z,16.77
2018-06-24T11:12:08.517Z,17.04
2018-06-24T11:14:40.300Z,17.16
2018-06-24T11:17:13.672Z,17.10
2018-06-24T11:19:45.727Z,17.18
2018-06-24T11:22:16.630Z,16.81
2018-06-24T11:24:47.121Z,16.53
2018-06-24T11:27:20.281Z,16.94
2018-06-24T11:29:52.330Z,17.49
2018-06-24T11:32:23.324Z,18.24
2018-06-24T11:34:55.048Z,18.03
2018-06-24T11:37:48.173Z,17.48
2018-06-24T11:40:19.431Z,17.37
2018-06-24T11:42:49.808Z,17.06
2018-06-24T11:45:20.868Z,16.80
2018-06-24T11:47:51.771Z,16.67
2018-06-24T11:50:22.067Z,17.08
2018-06-24T11:52:52.706Z,16.89
2018-06-24T11:58:35.822Z,17.73
2018-06-24T12:01:06.579Z,18.05
2018-06-24T12:03:39.072Z,17.43
2018-06-24T12:06:13.951Z,17.10
2018-06-24T12:08:47.592Z,16.76
2018-06-24T12:11:18.727Z,16.55
2018-06-24T12:13:50.463Z,16.94
2018-06-24T12:16:20.754Z,17.02
2018-06-24T12:18:51.490Z,17.48
2018-06-24T12:21:22.506Z,17.95
2018-06-24T12:23:54.142Z,17.37
2018-06-24T12:26:28.072Z,17.09
2018-06-24T12:29:01.454Z,16.87
2018-06-24T12:31:37.780Z,17.56
2018-06-24T12:34:09.959Z,18.52
2018-06-24T12:36:43.576Z,19.12
2018-06-24T12:39:17.721Z,19.67
2018-06-24T12:41:48.198Z,20.03
2018-06-24T12:44:31.746Z,19.90
2018-06-24T12:47:02.380Z,19.33
2018-06-24T12:49:32.971Z,18.55
2018-06-24T12:52:05.160Z,18.14
2018-06-24T12:54:37.636Z,17.73
2018-06-24T12:57:09.853Z,17.83
2018-06-24T12:59:41.031Z,18.22
2018-06-24T13:02:10.887Z,18.13
2018-06-24T13:04:44.951Z,18.05
2018-06-24T13:07:17.141Z,17.72
2018-06-24T13:09:48.011Z,18.33
2018-06-24T13:12:21.178Z,19.22
2018-06-24T13:17:45.079Z,19.85
2018-06-24T13:20:15.811Z,19.83
2018-06-24T13:22:47.260Z,19.23
2018-06-24T13:25:18.975Z,18.39
2018-06-24T13:27:49.266Z,17.50
2018-06-24T13:30:22.123Z,17.85
2018-06-24T13:32:54.033Z,18.89
2018-06-24T13:35:24.430Z,19.71
2018-06-24T13:37:55.314Z,19.95
2018-06-24T13:40:25.668Z,19.87
2018-06-24T13:43:09.641Z,19.40
2018-06-24T13:45:53.352Z,18.96
2018-06-24T13:48:42.504Z,19.10
2018-06-24T13:51:32.557Z,18.13
2018-06-24T13:54:20.458Z,17.23
2018-06-24T14:00:16.275Z,16.51
2018-06-24T14:02:48.120Z,16.56
2018-06-24T14:05:20.774Z,16.61
2018-06-24T14:08:09.146Z,16.60
2018-06-24T14:10:39.448Z,16.69
2018-06-24T14:13:11.390Z,16.81
2018-06-24T14:15:41.804Z,17.06
2018-06-24T14:18:19.771Z,17.06
2018-06-24T14:20:50.689Z,16.98
2018-06-24T14:23:21.935Z,17.08
2018-06-24T14:25:53.779Z,17.07
2018-06-24T14:28:25.571Z,16.81
2018-06-24T14:30:56.654Z,16.69
2018-06-24T14:33:26.886Z,16.72
2018-06-24T14:36:07.702Z,16.73
2018-06-24T14:38:48.546Z,16.81
2018-06-24T14:41:21.006Z,16.81
2018-06-24T14:43:53.372Z,16.92
2018-06-24T14:46:26.831Z,16.85
2018-06-24T14:48:57.774Z,16.66
2018-06-24T14:51:29.497Z,16.67
2018-06-24T14:54:00.939Z,16.43
2018-06-24T14:56:32.062Z,16.14
2018-06-24T14:59:05.855Z,16.08
2018-06-24T15:01:41.595Z,15.82
2018-06-24T15:04:12.628Z,15.90
2018-06-24T15:06:43.519Z,15.73
2018-06-24T15:09:13.908Z,15.44
2018-06-24T15:11:44.142Z,15.36
2018-06-24T15:14:14.188Z,15.25
2018-06-24T15:16:44.150Z,15.36
2018-06-24T15:19:14.757Z,15.72
2018-06-24T15:21:48.985Z,16.05
2018-06-24T15:24:22.019Z,16.44
2018-06-24T15:26:52.172Z,16.73
2018-06-24T15:29:24.434Z,17.02
2018-06-24T15:31:55.801Z,17.58
2018-06-24T15:34:28.345Z,17.85
2018-06-24T15:36:59.272Z,18.42
2018-06-24T15:39:29.506Z,18.80
2018-06-24T15:41:59.479Z,18.59
2018-06-24T15:44:29.698Z,17.95
2018-06-24T15:46:59.781Z,17.73
2018-06-24T15:49:32.449Z,17.67
2018-06-24T15:55:00.680Z,16.97
2018-06-24T15:57:55.281Z,16.72
2018-06-24T16:00:31.359Z,15.94
2018-06-24T16:03:05.978Z,15.61
2018-06-24T16:05:37.201Z,15.33
2018-06-24T16:08:13.746Z,15.33
2018-06-24T16:10:54.605Z,15.46
2018-06-24T16:13:30.364Z,15.90
2018-06-24T16:16:07.289Z,16.16
2018-06-24T16:18:38.555Z,15.63
2018-06-24T16:21:24.708Z,16.01
2018-06-24T16:24:06.062Z,15.89
2018-06-24T16:26:35.620Z,15.87
2018-06-24T16:29:07.026Z,15.83
2018-06-24T16:31:38.581Z,15.77
2018-06-24T16:34:09.309Z,15.76
2018-06-24T16:36:40.233Z,15.75
2018-06-24T16:39:13.349Z,15.84
2018-06-24T16:41:44.459Z,15.93
2018-06-24T16:44:14.921Z,16.05
2018-06-24T16:46:45.720Z,16.10
2018-06-24T16:49:15.735Z,16.13
2018-06-24T16:51:46.219Z,16.20
2018-06-24T16:54:18.066Z,16.25
2018-06-24T16:56:48.795Z,16.25
2018-06-24T16:59:20.736Z,16.13
2018-06-24T17:01:50.830Z,16.03
2018-06-24T17:04:21.366Z,16.08
2018-06-24T17:06:51.302Z,16.18
2018-06-24T17:09:24.545Z,16.15
2018-06-24T17:11:54.505Z,16.14
2018-06-24T17:14:24.942Z,16.16
2018-06-24T17:16:55.081Z,16.22
2018-06-24T17:19:25.159Z,16.31
2018-06-24T17:21:55.049Z,16.16
2018-06-24T17:24:25.125Z,16.38
2018-06-24T17:26:55.349Z,16.38
2018-06-24T17:29:24.988Z,16.52
2018-06-24T17:31:55.074Z,16.44
2018-06-24T17:34:25.159Z,16.20
2018-06-24T17:36:55.533Z,16.05
2018-06-24T17:39:30.261Z,16.11
2018-06-24T17:42:01.702Z,16.14
2018-06-24T17:44:32.133Z,16.07
2018-06-24T17:47:04.246Z,16.05
2018-06-24T17:49:35.261Z,16.04
2018-06-24T17:52:05.585Z,15.97
2018-06-24T17:54:35.655Z,15.99
2018-06-24T17:57:05.779Z,15.98
2018-06-24T17:59:35.482Z,16.05
2018-06-24T18:02:06.598Z,16.12
2018-06-24T18:04:37.686Z,16.04
2018-06-24T18:07:07.658Z,15.88
2018-06-24T18:09:38.873Z,15.76
2018-06-24T18:12:09.061Z,15.75
2018-06-24T18:14:39.217Z,15.68
2018-06-24T18:17:10.163Z,15.56
2018-06-24T18:19:41.997Z,15.38
2018-06-24T18:22:12.944Z,15.21
2018-06-24T18:24:44.541Z,15.06
2018-06-24T18:27:14.630Z,15.17
2018-06-24T18:29:44.549Z,15.09
2018-06-24T18:32:15.065Z,15.15
2018-06-24T18:34:44.902Z,15.05
2018-06-24T18:37:15.520Z,15.05
2018-06-24T18:39:46.282Z,14.96
2018-06-24T18:42:16.305Z,14.95
2018-06-24T18:44:47.096Z,14.94
2018-06-24T18:47:17.234Z,14.85
2018-06-24T18:49:47.250Z,14.85
2018-06-24T18:52:18.010Z,14.84
2018-06-24T18:54:48.480Z,14.74
2018-06-24T18:57:19.118Z,14.66
2018-06-24T18:59:49.767Z,14.80
2018-06-24T19:02:20.349Z,14.80
2018-06-24T19:04:51.686Z,14.80
2018-06-24T19:07:22.053Z,14.79
2018-06-24T19:09:52.820Z,14.60
2018-06-24T19:12:23.287Z,14.59
2018-06-24T19:14:54.414Z,14.42
2018-06-24T19:17:24.821Z,14.45
2018-06-24T19:19:55.692Z,14.38
2018-06-24T19:22:26.670Z,14.40
2018-06-24T19:24:56.911Z,14.35
2018-06-24T19:27:27.900Z,14.38
2018-06-24T19:29:58.437Z,14.35
2018-06-24T19:32:28.994Z,14.31
2018-06-24T19:34:59.468Z,14.36
2018-06-24T19:37:30.070Z,14.31
2018-06-24T19:40:00.582Z,14.31
2018-06-24T19:42:31.074Z,14.22
2018-06-24T19:45:01.447Z,14.23
2018-06-24T19:47:32.083Z,14.21
2018-06-24T19:50:03.085Z,14.17
2018-06-24T19:52:33.300Z,14.18
2018-06-24T19:55:04.651Z,14.15
2018-06-24T19:57:35.113Z,14.23
2018-06-24T20:00:06.906Z,14.20
2018-06-24T20:02:38.668Z,14.15
2018-06-24T20:05:08.973Z,14.13
2018-06-24T20:07:41.307Z,14.14
2018-06-24T20:10:11.255Z,14.15
2018-06-24T20:12:41.182Z,14.16
2018-06-24T20:15:11.591Z,14.18
2018-06-24T20:17:41.544Z,14.17
2018-06-24T20:20:12.393Z,14.17
2018-06-24T20:22:43.395Z,14.13
2018-06-24T20:25:13.395Z,14.20
2018-06-24T20:27:43.570Z,14.19
2018-06-24T20:30:13.401Z,14.18
2018-06-24T20:32:43.768Z,14.22
2018-06-24T20:35:13.576Z,14.21
2018-06-24T20:37:43.727Z,14.21
2018-06-24T20:40:13.621Z,14.23
2018-06-24T20:42:43.388Z,14.25
2018-06-24T20:45:13.247Z,14.24
2018-06-24T20:47:43.046Z,14.26
2018-06-24T20:50:12.933Z,14.35
2018-06-24T20:52:42.790Z,14.36
2018-06-24T20:55:12.681Z,14.28
2018-06-24T20:57:42.583Z,14.26
2018-06-24T21:00:12.843Z,14.27
2018-06-24T21:02:42.783Z,14.28
2018-06-24T21:05:12.627Z,14.30
2018-06-24T21:07:42.603Z,14.30
2018-06-24T21:10:12.487Z,14.33
2018-06-24T21:12:42.340Z,14.32
2018-06-24T21:15:12.160Z,14.36
2018-06-24T21:17:42.016Z,14.33
2018-06-24T21:20:11.978Z,14.29
2018-06-24T21:22:41.740Z,14.28
2018-06-24T21:25:11.728Z,14.32
2018-06-24T21:27:41.506Z,14.29
2018-06-24T21:30:11.538Z,14.41
2018-06-24T21:32:41.398Z,14.36
2018-06-24T21:35:11.168Z,14.34
2018-06-24T21:37:41.011Z,14.39
2018-06-24T21:40:10.977Z,14.37
2018-06-24T21:42:40.452Z,14.34
2018-06-24T21:45:10.405Z,14.23
2018-06-24T21:47:40.268Z,14.25
2018-06-24T21:50:10.147Z,14.30
2018-06-24T21:52:40.034Z,14.22
2018-06-24T21:55:10.495Z,14.20
2018-06-24T21:57:40.350Z,14.25
2018-06-24T22:00:11.316Z,14.28
2018-06-24T22:02:41.361Z,14.18
2018-06-24T22:05:11.263Z,14.18
2018-06-24T22:07:41.130Z,14.20
2018-06-24T22:10:11.047Z,14.15
2018-06-24T22:12:40.829Z,14.10
2018-06-24T22:15:12.490Z,14.06
2018-06-24T22:17:44.069Z,14.10
2018-06-24T22:20:14.305Z,14.17
2018-06-24T22:22:45.477Z,14.09
2018-06-24T22:25:15.460Z,14.06
2018-06-24T22:27:45.844Z,14.07
2018-06-24T22:30:17.792Z,14.09
2018-06-24T22:32:47.766Z,14.08
2018-06-24T22:35:18.342Z,14.12
2018-06-24T22:37:48.219Z,14.14
2018-06-24T22:40:18.048Z,14.25
2018-06-24T22:42:47.944Z,14.23
2018-06-24T22:45:17.841Z,14.19
2018-06-24T22:47:48.023Z,14.22
2018-06-24T22:50:18.825Z,14.14
2018-06-24T22:52:48.767Z,14.10
2018-06-24T22:55:18.594Z,14.11
2018-06-24T22:57:51.757Z,14.11
2018-06-24T23:00:21.745Z,14.14
2018-06-24T23:02:53.190Z,14.14
2018-06-24T23:05:24.758Z,14.14
2018-06-24T23:07:56.267Z,14.13
2018-06-24T23:10:27.954Z,14.12
2018-06-24T23:12:59.309Z,14.13
2018-06-24T23:15:29.323Z,14.11
2018-06-24T23:17:59.257Z,14.12
2018-06-24T23:20:31.222Z,14.11
2018-06-24T23:23:03.106Z,14.07
2018-06-24T23:25:35.418Z,14.03
2018-06-24T23:28:05.935Z,14.02
2018-06-24T23:30:36.244Z,14.04
2018-06-24T23:33:07.532Z,14.04
2018-06-24T23:35:38.110Z,14.03
2018-06-24T23:38:08.093Z,14.04
2018-06-24T23:40:40.626Z,14.02
2018-06-24T23:43:13.061Z,14.04
2018-06-24T23:45:42.995Z,14.04
2018-06-24T23:48:13.967Z,14.04
2018-06-24T23:50:43.489Z,14.03
2018-06-24T23:53:13.407Z,14.05
2018-06-24T23:55:43.329Z,13.97
2018-06-24T23:58:13.154Z,13.96
